createdAt,value
2019-02-21T00:01:25.612Z,95.10
2019-02-21T00:03:55.065Z,96.90
2019-02-21T00:06:24.745Z,97.80
2019-02-21T00:08:54.488Z,97.60
2019-02-21T00:11:23.976Z,97.00
2019-02-21T00:13:54.227Z,98.30
2019-02-21T00:16:23.814Z,97.10
2019-02-21T00:18:53.653Z,98.90
2019-02-21T00:21:23.108Z,98.20
2019-02-21T00:23:52.991Z,99.20
2019-02-21T00:26:23.276Z,98.50
2019-02-21T00:28:53.063Z,99.90
2019-02-21T00:31:22.817Z,99.90
2019-02-21T00:33:52.266Z,99.90
2019-02-21T00:36:22.066Z,99.90
2019-02-21T00:38:51.518Z,99.90
2019-02-21T00:41:20.912Z,99.90
2019-02-21T00:43:50.823Z,99.90
2019-02-21T00:46:20.857Z,99.90
2019-02-21T00:48:50.483Z,99.90
2019-02-21T00:51:19.834Z,99.90
2019-02-21T00:53:49.646Z,99.90
2019-02-21T00:56:19.203Z,99.90
2019-02-21T00:58:48.792Z,99.90
2019-02-21T01:01:20.740Z,99.90
2019-02-21T01:03:49.485Z,99.90
2019-02-21T01:06:19.006Z,99.90
2019-02-21T01:08:48.701Z,99.90
2019-02-21T01:11:18.130Z,99.90
2019-02-21T01:13:47.538Z,99.90
2019-02-21T01:16:17.210Z,99.90
2019-02-21T01:18:46.676Z,99.90
2019-02-21T01:21:16.187Z,99.90
2019-02-21T01:23:45.810Z,99.90
2019-02-21T01:26:16.894Z,99.90
2019-02-21T01:28:46.377Z,99.90
2019-02-21T01:31:16.192Z,99.90
2019-02-21T01:33:45.680Z,99.90
2019-02-21T01:36:15.265Z,99.90
2019-02-21T01:38:44.833Z,99.90
2019-02-21T01:41:14.679Z,99.90
2019-02-21T01:43:44.292Z,99.90
2019-02-21T01:46:13.761Z,99.90
2019-02-21T01:48:43.564Z,99.90
2019-02-21T01:51:13.258Z,99.90
2019-02-21T01:53:42.843Z,99.90
2019-02-21T01:56:12.587Z,99.90
2019-02-21T01:58:43.152Z,99.90
2019-02-21T02:01:12.760Z,99.90
2019-02-21T02:03:42.318Z,99.90
2019-02-21T02:06:11.794Z,99.90
2019-02-21T02:08:41.509Z,99.90
2019-02-21T02:11:10.953Z,99.90
2019-02-21T02:13:40.683Z,99.90
2019-02-21T02:16:11.006Z,99.90
2019-02-21T02:18:40.545Z,99.90
2019-02-21T02:21:11.220Z,99.90
2019-02-21T02:23:41.034Z,99.90
2019-02-21T02:26:10.536Z,99.90
2019-02-21T02:28:40.469Z,99.90
2019-02-21T02:31:22.181Z,99.90
2019-02-21T02:33:40.035Z,99.90
2019-02-21T02:36:09.566Z,99.90
2019-02-21T02:38:39.412Z,99.90
2019-02-21T02:41:08.862Z,99.90
2019-02-21T02:43:38.397Z,99.90
2019-02-21T02:46:08.466Z,99.90
2019-02-21T02:48:38.285Z,99.90
2019-02-21T02:51:07.801Z,99.90
2019-02-21T02:53:37.576Z,99.90
2019-02-21T02:56:07.287Z,99.90
2019-02-21T02:58:37.196Z,99.90
2019-02-21T03:01:07.119Z,99.90
2019-02-21T03:03:36.767Z,99.90
2019-02-21T03:06:06.393Z,99.90
2019-02-21T03:08:35.996Z,99.90
2019-02-21T03:11:05.639Z,99.90
2019-02-21T03:13:35.219Z,99.90
2019-02-21T03:16:04.846Z,99.90
2019-02-21T03:18:34.448Z,99.90
2019-02-21T03:21:03.944Z,99.90
2019-02-21T03:23:33.805Z,99.90
2019-02-21T03:26:03.565Z,99.90
2019-02-21T03:28:33.984Z,99.90
2019-02-21T03:31:04.353Z,99.90
2019-02-21T03:33:33.901Z,99.90
2019-02-21T03:36:03.546Z,99.90
2019-02-21T03:38:35.069Z,99.90
2019-02-21T03:41:03.073Z,99.90
2019-02-21T03:43:32.546Z,99.90
2019-02-21T03:46:02.279Z,99.90
2019-02-21T03:48:31.847Z,99.90
2019-02-21T03:51:02.073Z,99.90
2019-02-21T03:53:31.795Z,99.90
2019-02-21T03:56:01.470Z,99.90
2019-02-21T03:58:31.737Z,99.90
2019-02-21T04:01:01.219Z,99.90
2019-02-21T04:03:31.650Z,99.90
2019-02-21T04:06:01.314Z,99.90
2019-02-21T04:08:30.859Z,99.90
2019-02-21T04:11:00.503Z,99.90
2019-02-21T04:13:30.203Z,99.90
2019-02-21T04:15:59.714Z,99.90
2019-02-21T04:18:29.601Z,99.90
2019-02-21T04:20:59.270Z,99.90
2019-02-21T04:23:28.840Z,99.90
2019-02-21T04:25:58.702Z,99.90
2019-02-21T04:28:28.405Z,99.90
2019-02-21T04:30:58.193Z,99.90
2019-02-21T04:33:28.480Z,99.90
2019-02-21T04:35:58.022Z,99.90
2019-02-21T04:38:27.434Z,99.90
2019-02-21T04:40:57.128Z,99.90
2019-02-21T04:43:26.519Z,99.90
2019-02-21T04:45:56.138Z,99.90
2019-02-21T04:48:25.591Z,99.90
2019-02-21T04:50:55.337Z,99.90
2019-02-21T04:53:25.240Z,99.90
2019-02-21T04:55:54.826Z,99.90
2019-02-21T04:58:24.141Z,99.90
2019-02-21T05:00:54.227Z,99.90
2019-02-21T05:03:23.785Z,99.90
2019-02-21T05:05:53.219Z,99.90
2019-02-21T05:08:22.896Z,99.90
2019-02-21T05:10:52.675Z,99.90
2019-02-21T05:13:22.321Z,99.90
2019-02-21T05:15:51.869Z,99.90
2019-02-21T05:18:21.334Z,99.90
2019-02-21T05:20:51.301Z,99.90
2019-02-21T05:23:20.603Z,99.90
2019-02-21T05:25:54.409Z,99.90
2019-02-21T05:28:30.051Z,99.90
2019-02-21T05:31:01.464Z,99.90
2019-02-21T05:33:36.885Z,99.90
2019-02-21T05:36:07.464Z,99.90
2019-02-21T05:38:42.434Z,99.90
2019-02-21T05:41:14.204Z,99.90
2019-02-21T05:46:52.076Z,99.90
2019-02-21T05:49:36.239Z,99.90
2019-02-21T05:52:16.992Z,99.90
2019-02-21T05:54:50.277Z,99.90
2019-02-21T05:57:25.918Z,99.90
2019-02-21T05:59:56.976Z,99.90
2019-02-21T06:02:36.891Z,99.90
2019-02-21T06:05:08.715Z,99.90
2019-02-21T06:07:44.737Z,99.90
2019-02-21T06:10:20.073Z,99.90
2019-02-21T06:13:00.618Z,99.90
2019-02-21T06:18:34.395Z,99.90
2019-02-21T06:21:07.027Z,99.90
2019-02-21T06:23:41.755Z,99.90
2019-02-21T06:26:22.930Z,99.90
2019-02-21T06:28:57.508Z,99.90
2019-02-21T06:31:27.047Z,99.90
2019-02-21T06:33:56.889Z,99.90
2019-02-21T06:36:26.390Z,99.90
2019-02-21T06:38:55.879Z,99.90
2019-02-21T06:41:25.886Z,99.90
2019-02-21T06:43:56.864Z,99.90
2019-02-21T06:46:25.794Z,99.90
2019-02-21T06:48:55.275Z,99.90
2019-02-21T06:51:24.832Z,99.90
2019-02-21T06:53:54.467Z,99.90
2019-02-21T06:56:24.002Z,99.90
2019-02-21T06:58:53.635Z,99.90
2019-02-21T07:01:29.164Z,99.90
2019-02-21T07:03:55.001Z,99.90
2019-02-21T07:06:31.848Z,99.90
2019-02-21T07:08:54.940Z,99.90
2019-02-21T07:11:25.504Z,99.90
2019-02-21T07:13:54.872Z,99.90
2019-02-21T07:16:24.293Z,99.90
2019-02-21T07:18:54.203Z,99.90
2019-02-21T07:21:23.914Z,99.90
2019-02-21T07:23:54.338Z,99.90
2019-02-21T07:26:23.734Z,99.90
2019-02-21T07:28:54.416Z,99.90
2019-02-21T07:31:28.860Z,99.90
2019-02-21T07:33:53.573Z,99.90
2019-02-21T07:36:23.807Z,99.90
2019-02-21T07:39:04.910Z,99.90
2019-02-21T07:41:23.513Z,99.90
2019-02-21T07:43:52.820Z,99.90
2019-02-21T07:46:22.439Z,99.90
2019-02-21T07:48:52.077Z,99.90
2019-02-21T07:51:22.372Z,99.90
2019-02-21T07:53:51.608Z,99.90
2019-02-21T07:56:21.395Z,99.90
2019-02-21T07:58:50.936Z,99.90
2019-02-21T08:01:20.232Z,99.90
2019-02-21T08:03:49.426Z,99.90
2019-02-21T08:06:19.906Z,99.90
2019-02-21T08:08:48.872Z,99.90
2019-02-21T08:11:18.553Z,99.90
2019-02-21T08:13:48.099Z,99.90
2019-02-21T08:16:17.517Z,99.90
2019-02-21T08:18:47.148Z,99.90
2019-02-21T08:21:16.817Z,99.90
2019-02-21T08:23:50.461Z,99.90
2019-02-21T08:26:16.091Z,99.90
2019-02-21T08:28:45.768Z,99.90
2019-02-21T08:31:16.028Z,99.90
2019-02-21T08:33:58.278Z,99.90
2019-02-21T08:36:20.946Z,99.90
2019-02-21T08:38:50.679Z,99.90
2019-02-21T08:41:20.046Z,99.90
2019-02-21T08:43:49.725Z,99.90
2019-02-21T08:46:20.826Z,99.90
2019-02-21T08:48:50.415Z,99.90
2019-02-21T08:51:19.910Z,99.90
2019-02-21T08:53:50.195Z,99.90
2019-02-21T08:56:19.704Z,99.90
2019-02-21T08:58:49.195Z,99.90
2019-02-21T09:01:19.084Z,99.90
2019-02-21T09:03:48.724Z,99.90
2019-02-21T09:06:18.030Z,99.90
2019-02-21T09:08:47.862Z,99.90
2019-02-21T09:11:19.654Z,99.90
2019-02-21T09:13:47.182Z,99.90
2019-02-21T09:16:18.402Z,99.90
2019-02-21T09:18:48.012Z,99.90
2019-02-21T09:21:17.495Z,99.90
2019-02-21T09:23:47.038Z,99.90
2019-02-21T09:26:16.506Z,99.90
2019-02-21T09:28:46.081Z,99.90
2019-02-21T09:31:15.629Z,99.90
2019-02-21T09:33:45.097Z,99.90
2019-02-21T09:36:15.365Z,99.90
2019-02-21T09:38:44.916Z,99.90
2019-02-21T09:41:14.676Z,99.90
2019-02-21T09:43:44.149Z,99.90
2019-02-21T09:46:13.720Z,99.90
2019-02-21T09:48:44.059Z,99.90
2019-02-21T09:51:13.589Z,99.90
2019-02-21T09:53:43.311Z,99.90
2019-02-21T09:56:12.923Z,99.90
2019-02-21T09:58:42.515Z,99.90
2019-02-21T10:01:11.810Z,99.90
2019-02-21T10:03:43.996Z,99.90
2019-02-21T10:06:11.219Z,99.90
2019-02-21T10:08:41.758Z,99.90
2019-02-21T10:11:11.548Z,99.90
2019-02-21T10:13:40.906Z,99.90
2019-02-21T10:16:10.609Z,99.90
2019-02-21T10:18:40.137Z,99.90
2019-02-21T10:21:09.678Z,99.90
2019-02-21T10:23:42.030Z,99.90
2019-02-21T10:26:09.611Z,99.90
2019-02-21T10:28:40.015Z,99.90
2019-02-21T10:31:11.247Z,99.90
2019-02-21T10:33:46.883Z,99.90
2019-02-21T10:36:10.626Z,99.90
2019-02-21T10:38:40.099Z,99.90
2019-02-21T10:41:09.605Z,99.90
2019-02-21T10:43:40.370Z,99.90
2019-02-21T10:46:09.839Z,99.90
2019-02-21T10:48:39.556Z,99.90
2019-02-21T10:51:09.115Z,99.90
2019-02-21T10:53:38.783Z,99.90
2019-02-21T10:56:08.366Z,99.90
2019-02-21T10:58:37.617Z,99.90
2019-02-21T11:01:06.991Z,99.90
2019-02-21T11:03:36.281Z,99.90
2019-02-21T11:06:05.971Z,99.90
2019-02-21T11:08:35.698Z,99.90
2019-02-21T11:11:05.956Z,99.90
2019-02-21T11:13:35.331Z,99.90
2019-02-21T11:16:05.730Z,99.90
2019-02-21T11:18:35.115Z,99.90
2019-02-21T11:21:04.923Z,99.90
2019-02-21T11:23:34.718Z,99.90
2019-02-21T11:26:04.603Z,99.90
2019-02-21T11:28:34.889Z,99.90
2019-02-21T11:31:04.347Z,99.90
2019-02-21T11:33:33.745Z,99.90
2019-02-21T11:36:03.107Z,99.90
2019-02-21T11:38:34.289Z,99.90
2019-02-21T11:41:04.046Z,99.90
2019-02-21T11:43:33.588Z,99.90
2019-02-21T11:46:03.954Z,99.90
2019-02-21T11:48:33.434Z,99.90
2019-02-21T11:51:03.111Z,99.90
2019-02-21T11:53:32.794Z,99.90
2019-02-21T11:56:02.379Z,99.90
2019-02-21T11:58:31.964Z,99.90
2019-02-21T12:01:01.671Z,99.90
2019-02-21T12:03:31.162Z,99.90
2019-02-21T12:06:01.564Z,99.90
2019-02-21T12:08:31.065Z,99.90
2019-02-21T12:11:00.640Z,99.90
2019-02-21T12:13:30.330Z,99.90
2019-02-21T12:16:00.274Z,99.90
2019-02-21T12:18:29.894Z,99.90
2019-02-21T12:20:59.457Z,99.90
2019-02-21T12:23:29.053Z,99.90
2019-02-21T12:25:58.740Z,99.90
2019-02-21T12:28:28.366Z,99.90
2019-02-21T12:30:58.035Z,99.90
2019-02-21T12:33:27.712Z,99.90
2019-02-21T12:35:59.387Z,99.90
2019-02-21T12:38:27.003Z,99.90
2019-02-21T12:40:56.529Z,99.90
2019-02-21T12:43:26.283Z,99.90
2019-02-21T12:45:56.077Z,99.90
2019-02-21T12:48:25.768Z,99.90
2019-02-21T12:50:55.150Z,99.90
2019-02-21T12:53:24.445Z,99.90
2019-02-21T12:55:54.747Z,99.90
2019-02-21T12:58:24.189Z,99.90
2019-02-21T13:00:53.745Z,99.90
2019-02-21T13:03:23.373Z,99.90
2019-02-21T13:05:53.082Z,99.90
2019-02-21T13:08:22.538Z,99.90
2019-02-21T13:10:51.820Z,99.90
2019-02-21T13:13:21.291Z,99.90
2019-02-21T13:15:50.821Z,99.90
2019-02-21T13:18:20.537Z,99.90
2019-02-21T13:20:50.109Z,99.90
2019-02-21T13:23:19.739Z,99.90
2019-02-21T13:25:49.353Z,99.90
2019-02-21T13:28:19.602Z,99.90
2019-02-21T13:30:48.944Z,99.90
2019-02-21T13:33:18.473Z,99.90
2019-02-21T13:35:52.664Z,99.90
2019-02-21T13:38:17.590Z,99.90
2019-02-21T13:40:49.441Z,99.90
2019-02-21T13:43:16.968Z,99.90
2019-02-21T13:45:46.401Z,99.90
2019-02-21T13:48:16.566Z,99.90
2019-02-21T13:50:46.153Z,99.90
2019-02-21T13:53:15.497Z,99.90
2019-02-21T13:55:45.209Z,99.90
2019-02-21T13:58:14.873Z,99.90
2019-02-21T14:00:44.344Z,99.90
2019-02-21T14:03:15.146Z,99.90
2019-02-21T14:05:44.508Z,99.90
2019-02-21T14:08:14.454Z,99.90
2019-02-21T14:10:43.946Z,99.90
2019-02-21T14:13:13.758Z,99.90
2019-02-21T14:15:43.920Z,99.90
2019-02-21T14:18:13.438Z,99.90
2019-02-21T14:20:45.668Z,99.90
2019-02-21T14:23:12.842Z,99.90
2019-02-21T14:25:42.481Z,99.90
2019-02-21T14:28:11.885Z,99.90
2019-02-21T14:30:41.312Z,99.90
2019-02-21T14:33:10.941Z,99.90
2019-02-21T14:35:40.058Z,99.90
2019-02-21T14:38:09.489Z,99.90
2019-02-21T14:40:38.893Z,99.90
2019-02-21T14:43:08.419Z,99.90
2019-02-21T14:45:37.831Z,99.90
2019-02-21T14:48:08.307Z,99.90
2019-02-21T14:50:38.028Z,99.90
2019-02-21T14:53:07.469Z,99.90
2019-02-21T14:55:37.657Z,99.90
2019-02-21T14:58:07.327Z,99.90
2019-02-21T15:00:36.776Z,99.90
2019-02-21T15:03:06.393Z,99.90
2019-02-21T15:05:36.133Z,99.90
2019-02-21T15:08:05.373Z,99.90
2019-02-21T15:10:36.461Z,99.90
2019-02-21T15:13:06.082Z,99.90
2019-02-21T15:15:35.790Z,99.90
2019-02-21T15:18:08.313Z,99.90
2019-02-21T15:20:37.047Z,99.90
2019-02-21T15:23:04.863Z,99.90
2019-02-21T15:25:34.418Z,99.90
2019-02-21T15:28:03.889Z,99.90
2019-02-21T15:30:33.378Z,99.90
2019-02-21T15:33:03.047Z,99.90
2019-02-21T15:35:32.496Z,99.90
2019-02-21T15:38:02.067Z,99.90
2019-02-21T15:40:31.454Z,99.90
2019-02-21T15:43:01.158Z,99.90
2019-02-21T15:45:31.322Z,99.90
2019-02-21T15:48:01.235Z,99.90
2019-02-21T15:50:30.816Z,99.90
2019-02-21T15:53:00.686Z,99.90
2019-02-21T15:55:32.184Z,99.90
2019-02-21T15:58:03.869Z,99.90
2019-02-21T16:00:30.120Z,99.90
2019-02-21T16:03:00.853Z,99.90
2019-02-21T16:05:30.428Z,99.90
2019-02-21T16:07:59.839Z,99.90
2019-02-21T16:10:29.414Z,99.90
2019-02-21T16:12:59.509Z,99.90
2019-02-21T16:15:29.391Z,99.90
2019-02-21T16:17:59.150Z,99.90
2019-02-21T16:20:28.940Z,99.90
2019-02-21T16:22:59.345Z,99.90
2019-02-21T16:25:34.421Z,99.90
2019-02-21T16:28:04.187Z,99.90
2019-02-21T16:30:33.943Z,99.90
2019-02-21T16:33:03.664Z,94.50
2019-02-21T16:35:33.297Z,88.80
2019-02-21T16:38:02.874Z,82.30
2019-02-21T16:40:32.654Z,79.30
2019-02-21T16:43:02.836Z,76.70
2019-02-21T16:45:43.006Z,65.40
2019-02-21T16:48:02.030Z,62.80
2019-02-21T16:50:32.350Z,64.90
2019-02-21T16:53:02.740Z,64.80
2019-02-21T16:55:32.315Z,64.80
2019-02-21T16:58:01.805Z,67.20
2019-02-21T17:00:47.424Z,64.30
2019-02-21T17:03:01.373Z,62.70
2019-02-21T17:05:30.828Z,62.00
2019-02-21T17:08:00.250Z,60.40
2019-02-21T17:10:29.952Z,57.10
2019-02-21T17:12:59.426Z,49.80
2019-02-21T17:15:29.297Z,44.20
2019-02-21T17:18:03.649Z,36.60
2019-02-21T17:20:28.792Z,28.00
2019-02-21T17:22:58.940Z,26.20
2019-02-21T17:25:28.588Z,24.80
2019-02-21T17:27:58.261Z,22.60
2019-02-21T17:30:27.638Z,20.80
2019-02-21T17:32:57.535Z,20.10
2019-02-21T17:35:27.050Z,19.80
2019-02-21T17:37:56.510Z,19.80
2019-02-21T17:40:26.008Z,19.10
2019-02-21T17:42:55.258Z,18.60
2019-02-21T17:45:25.525Z,17.00
2019-02-21T17:47:56.742Z,17.00
2019-02-21T17:50:26.244Z,15.50
2019-02-21T17:52:55.854Z,15.00
2019-02-21T17:55:25.840Z,15.10
2019-02-21T17:57:55.323Z,13.80
2019-02-21T18:00:42.320Z,14.50
2019-02-21T18:03:11.828Z,14.40
2019-02-21T18:05:41.340Z,14.80
2019-02-21T18:08:11.778Z,14.40
2019-02-21T18:10:41.568Z,14.40
2019-02-21T18:13:11.172Z,15.20
2019-02-21T18:15:40.799Z,17.30
2019-02-21T18:18:10.189Z,17.40
2019-02-21T18:20:40.126Z,18.90
2019-02-21T18:23:12.350Z,19.90
2019-02-21T18:25:47.628Z,20.40
2019-02-21T18:28:17.214Z,21.00
2019-02-21T18:30:46.571Z,20.60
2019-02-21T18:33:16.000Z,20.20
2019-02-21T18:35:46.291Z,18.80
2019-02-21T18:38:15.260Z,18.70
2019-02-21T18:40:44.797Z,18.70
2019-02-21T18:43:14.392Z,19.30
2019-02-21T18:45:43.951Z,19.40
2019-02-21T18:48:13.674Z,21.40
2019-02-21T18:50:43.311Z,23.10
2019-02-21T18:53:14.357Z,21.80
2019-02-21T18:55:45.007Z,17.30
2019-02-21T18:58:14.723Z,17.20
2019-02-21T19:00:45.083Z,17.60
2019-02-21T19:03:14.490Z,16.90
2019-02-21T19:05:43.601Z,17.00
2019-02-21T19:08:13.324Z,19.10
2019-02-21T19:10:43.142Z,19.90
2019-02-21T19:13:14.118Z,21.30
2019-02-21T19:15:43.761Z,21.60
2019-02-21T19:18:13.203Z,24.00
2019-02-21T19:20:42.896Z,25.60
2019-02-21T19:23:12.290Z,24.20
2019-02-21T19:25:42.205Z,22.00
2019-02-21T19:28:11.749Z,23.30
2019-02-21T19:30:42.358Z,24.30
2019-02-21T19:33:12.036Z,24.30
2019-02-21T19:35:41.682Z,23.20
2019-02-21T19:38:11.287Z,23.20
2019-02-21T19:40:41.709Z,20.80
2019-02-21T19:43:11.202Z,20.70
2019-02-21T19:45:41.014Z,20.00
2019-02-21T19:48:10.383Z,20.00
2019-02-21T19:50:39.799Z,19.20
2019-02-21T19:53:09.494Z,20.40
2019-02-21T19:55:39.045Z,18.30
2019-02-21T19:58:09.071Z,17.20
2019-02-21T20:00:38.317Z,15.30
2019-02-21T20:03:07.954Z,14.30
2019-02-21T20:05:37.602Z,13.70
2019-02-21T20:08:09.037Z,14.60
2019-02-21T20:10:38.005Z,14.50
2019-02-21T20:13:07.825Z,13.40
2019-02-21T20:17:57.116Z,13.60
2019-02-21T20:20:26.969Z,14.50
2019-02-21T20:22:56.337Z,15.00
2019-02-21T20:25:26.186Z,15.10
2019-02-21T20:27:55.677Z,16.30
2019-02-21T20:30:25.313Z,18.30
2019-02-21T20:32:54.879Z,19.20
2019-02-21T20:35:24.570Z,20.20
2019-02-21T20:37:54.595Z,23.10
2019-02-21T20:40:24.318Z,22.80
2019-02-21T20:42:54.005Z,23.20
2019-02-21T20:45:24.847Z,20.80
2019-02-21T20:47:54.577Z,19.80
2019-02-21T20:50:24.041Z,19.80
2019-02-21T20:52:53.430Z,20.90
2019-02-21T20:55:22.793Z,21.50
2019-02-21T20:57:52.697Z,22.40
2019-02-21T21:00:22.577Z,22.80
2019-02-21T21:02:52.334Z,23.10
2019-02-21T21:05:22.111Z,22.50
2019-02-21T21:07:51.553Z,24.00
2019-02-21T21:10:21.092Z,25.10
2019-02-21T21:12:50.748Z,26.40
2019-02-21T21:15:20.550Z,26.30
2019-02-21T21:17:50.807Z,28.70
2019-02-21T21:20:20.405Z,28.60
2019-02-21T21:22:50.173Z,28.70
2019-02-21T21:25:19.679Z,27.40
2019-02-21T21:27:49.258Z,27.50
2019-02-21T21:30:19.615Z,28.50
2019-02-21T21:32:50.571Z,29.50
2019-02-21T21:35:20.560Z,30.00
2019-02-21T21:37:50.411Z,30.70
2019-02-21T21:40:20.006Z,32.00
2019-02-21T21:42:49.231Z,30.00
2019-02-21T21:45:19.686Z,32.80
2019-02-21T21:47:49.470Z,32.80
2019-02-21T21:50:19.075Z,32.80
2019-02-21T21:52:48.412Z,31.80
2019-02-21T21:55:18.137Z,32.20
2019-02-21T21:57:47.761Z,31.50
2019-02-21T22:00:20.633Z,32.60
2019-02-21T22:02:50.467Z,32.30
2019-02-21T22:05:19.916Z,31.90
2019-02-21T22:07:49.858Z,32.80
2019-02-21T22:10:19.497Z,32.40
2019-02-21T22:12:49.285Z,34.20
2019-02-21T22:15:22.028Z,34.00
2019-02-21T22:17:51.687Z,35.20
2019-02-21T22:20:21.460Z,33.30
2019-02-21T22:22:51.159Z,34.20
2019-02-21T22:25:20.823Z,35.70
2019-02-21T22:27:50.451Z,37.10
2019-02-21T22:30:20.683Z,37.80
2019-02-21T22:32:50.238Z,39.60
2019-02-21T22:35:19.977Z,41.90
2019-02-21T22:37:49.577Z,41.80
2019-02-21T22:40:19.539Z,42.20
2019-02-21T22:42:50.155Z,42.50
2019-02-21T22:45:19.874Z,42.70
2019-02-21T22:47:49.412Z,43.60
2019-02-21T22:50:19.665Z,43.90
2019-02-21T22:52:49.514Z,44.20
2019-02-21T22:55:19.064Z,45.00
2019-02-21T22:57:48.631Z,45.20
2019-02-21T23:03:19.228Z,45.20
2019-02-21T23:05:54.383Z,45.20
2019-02-21T23:08:47.995Z,44.00
2019-02-21T23:11:17.776Z,44.90
2019-02-21T23:13:47.614Z,45.20
2019-02-21T23:16:17.084Z,45.10
2019-02-21T23:18:47.049Z,45.70
2019-02-21T23:21:17.016Z,46.10
2019-02-21T23:23:46.423Z,46.20
2019-02-21T23:26:15.513Z,45.60
2019-02-21T23:28:44.969Z,44.80
2019-02-21T23:31:15.115Z,45.30
2019-02-21T23:33:44.977Z,45.30
2019-02-21T23:36:14.473Z,45.90
2019-02-21T23:38:43.837Z,44.70
2019-02-21T23:41:13.539Z,43.50
2019-02-21T23:43:43.130Z,44.30
2019-02-21T23:46:12.697Z,45.30
2019-02-21T23:48:42.234Z,45.00
2019-02-21T23:51:11.906Z,44.70
2019-02-21T23:53:41.228Z,43.70
2019-02-21T23:56:10.641Z,45.00
2019-02-21T23:58:40.500Z,45.00
